Time,TemperatureF,DewpointF,PressureIn,WindDirection,WindDirectionDegrees,WindSpeedMPH,WindSpeedGustMPH,Humidity,HourlyPrecipIn,Conditions,Clouds,dailyrainin,SoftwareType,DateUTC
2013-03-18 00:00:00,29.8,20.9,29.97,East,90,10.4,10.4,69,0.00,CLR,,0.00,WeatherDisplay:10.37,2013-03-18 04:00:00,
2013-03-18 00:01:00,29.8,20.9,29.96,ESE,112,10.4,10.4,69,0.00,CLR,,0.00,WeatherDisplay:10.37,2013-03-18 04:01:00,
2013-03-18 00:05:00,29.8,20.9,29.96,ESE,108,9.0,11.0,69,0.00,CLR,,0.00,WeatherDisplay:10.37,2013-03-18 04:05:00,
2013-03-18 00:10:00,29.8,20.9,29.96,ESE,109,8.0,10.0,69,0.00,CLR,,0.00,WeatherDisplay:10.37,2013-03-18 04:10:00,
2013-03-18 00:15:00,29.8,20.9,29.97,ESE,106,8.0,11.0,69,0.00,CLR,,0.00,WeatherDisplay:10.37,2013-03-18 04:15:00,
2013-03-18 00:20:00,29.8,20.9,29.97,ESE,109,9.0,11.0,69,0.00,CLR,,0.00,WeatherDisplay:10.37,2013-03-18 04:20:00,
2013-03-18 00:24:00,29.8,20.9,29.97,ESE,109,9.0,12.0,69,0.00,CLR,,0.00,WeatherDisplay:10.37,2013-03-18 04:24:00,
2013-03-18 00:30:00,29.8,20.9,29.96,ESE,109,9.0,9.0,69,0.00,CLR,,0.00,WeatherDisplay:10.37,2013-03-18 04:30:00,
2013-03-18 00:35:00,30.0,21.1,29.96,ESE,112,9.0,13.0,69,0.00,CLR,,0.00,WeatherDisplay:10.37,2013-03-18 04:35:00,
2013-03-18 00:40:00,30.0,21.1,29.96,ESE,109,10.0,13.0,69,0.00,CLR,,0.00,WeatherDisplay:10.37,2013-03-18 04:40:00,
2013-03-18 00:45:00,30.0,21.1,29.96,ESE,109,10.0,14.0,69,0.00,CLR,,0.00,WeatherDisplay:10.37,2013-03-18 04:45:00,
2013-03-18 00:50:00,30.0,21.1,29.95,ESE,111,9.0,12.0,69,0.00,CLR,,0.00,WeatherDisplay:10.37,2013-03-18 04:50:00,
2013-03-18 00:55:00,30.2,21.2,29.95,ESE,109,8.0,11.0,69,0.00,CLR,,0.00,WeatherDisplay:10.37,2013-03-18 04:55:00,
2013-03-18 00:59:00,30.2,20.9,29.95,ESE,108,9.0,12.0,68,0.00,CLR,,0.00,WeatherDisplay:10.37,2013-03-18 04:59:00,
2013-03-18 01:05:00,30.2,20.9,29.96,ESE,109,9.0,11.0,68,0.00,CLR,,0.00,WeatherDisplay:10.37,2013-03-18 05:05:00,
2013-03-18 01:10:00,30.2,20.9,29.96,ESE,111,8.0,9.0,68,0.00,CLR,,0.00,WeatherDisplay:10.37,2013-03-18 05:10:00,
2013-03-18 01:15:00,30.0,20.7,29.96,ESE,115,8.0,10.0,68,0.00,CLR,,0.00,WeatherDisplay:10.37,2013-03-18 05:15:00,
2013-03-18 01:20:00,30.0,20.7,29.96,ESE,112,8.1,8.1,68,0.00,CLR,,0.00,WeatherDisplay:10.37,2013-03-18 05:20:00,
2013-03-18 01:25:00,30.0,20.7,29.96,ESE,112,9.9,9.9,68,0.00,CLR,,0.00,WeatherDisplay:10.37,2013-03-18 05:25:00,
2013-03-18 01:30:00,30.0,20.7,29.95,ESE,112,9.9,9.9,68,0.00,CLR,,0.00,WeatherDisplay:10.37,2013-03-18 05:30:00,
2013-03-18 01:35:00,30.2,20.9,29.95,ESE,112,9.9,9.9,68,0.00,SCT,,0.00,WeatherDisplay:10.37,2013-03-18 05:35:00,
2013-03-18 01:40:00,30.2,20.9,29.95,ESE,112,9.4,9.4,68,0.00,SCT,,0.00,WeatherDisplay:10.37,2013-03-18 05:40:00,
2013-03-18 01:45:00,30.2,20.9,29.95,ESE,112,10.4,10.4,68,0.00,SCT,,0.00,WeatherDisplay:10.37,2013-03-18 05:45:00,
2013-03-18 01:50:00,30.2,20.9,29.95,ESE,112,8.1,8.1,68,0.00,SCT,,0.00,WeatherDisplay:10.37,2013-03-18 05:50:00,
2013-03-18 01:55:00,30.4,21.1,29.95,ESE,112,9.2,9.2,68,0.00,SCT,,0.00,WeatherDisplay:10.37,2013-03-18 05:55:00,
2013-03-18 02:00:00,30.4,21.1,29.95,ESE,112,10.9,10.9,68,0.00,SCT,,0.00,WeatherDisplay:10.37,2013-03-18 06:00:00,
2013-03-18 02:05:00,30.4,21.1,29.95,ESE,112,10.4,10.4,68,0.00,SCT,,0.00,WeatherDisplay:10.37,2013-03-18 06:05:00,
2013-03-18 02:10:00,30.6,21.3,29.95,ESE,112,10.4,10.4,68,0.00,SCT,,0.00,WeatherDisplay:10.37,2013-03-18 06:10:00,
2013-03-18 02:15:00,30.6,21.3,29.95,ESE,112,10.4,10.4,68,0.00,SCT,,0.00,WeatherDisplay:10.37,2013-03-18 06:15:00,
2013-03-18 02:20:00,30.7,21.4,29.95,ESE,112,10.4,10.4,68,0.00,SCT,,0.00,WeatherDisplay:10.37,2013-03-18 06:20:00,
2013-03-18 02:25:00,30.7,21.4,29.94,SE,135,8.1,8.1,68,0.00,SCT,,0.00,WeatherDisplay:10.37,2013-03-18 06:25:00,
2013-03-18 02:30:00,30.7,21.4,29.94,ESE,112,8.3,8.3,68,0.00,SCT,,0.00,WeatherDisplay:10.37,2013-03-18 06:30:00,
2013-03-18 02:35:00,30.7,21.0,29.94,ESE,112,8.1,8.1,67,0.00,BKN,,0.00,WeatherDisplay:10.37,2013-03-18 06:35:00,
2013-03-18 02:40:00,30.7,21.0,29.94,ESE,112,9.2,9.2,67,0.00,BKN,,0.00,WeatherDisplay:10.37,2013-03-18 06:40:00,
2013-03-18 02:45:00,30.9,21.2,29.94,ESE,112,10.4,10.4,67,0.00,BKN,,0.00,WeatherDisplay:10.37,2013-03-18 06:45:00,
2013-03-18 02:50:00,30.9,21.2,29.93,East,90,8.3,8.3,67,0.00,BKN,,0.00,WeatherDisplay:10.37,2013-03-18 06:50:00,
2013-03-18 02:55:00,30.9,21.2,29.93,SSE,158,6.9,6.9,67,0.00,BKN,,0.00,WeatherDisplay:10.37,2013-03-18 06:55:00,
2013-03-18 03:00:00,30.9,21.2,29.93,East,90,8.1,8.1,67,0.00,BKN,,0.00,WeatherDisplay:10.37,2013-03-18 07:00:00,
2013-03-18 03:05:00,31.1,21.4,29.93,ESE,112,8.1,8.1,67,0.00,BKN,,0.00,WeatherDisplay:10.37,2013-03-18 07:05:00,
2013-03-18 03:10:00,31.3,21.6,29.93,SE,135,8.1,8.1,67,0.00,BKN,,0.00,WeatherDisplay:10.37,2013-03-18 07:10:00,
2013-03-18 03:15:00,31.5,21.8,29.93,ESE,112,6.3,6.3,67,0.00,BKN,,0.00,WeatherDisplay:10.37,2013-03-18 07:15:00,
2013-03-18 03:20:00,31.6,21.9,29.93,ESE,112,8.1,8.1,67,0.00,BKN,,0.00,WeatherDisplay:10.37,2013-03-18 07:20:00,
2013-03-18 03:25:00,31.8,21.7,29.93,ESE,112,6.9,6.9,66,0.00,BKN,,0.00,WeatherDisplay:10.37,2013-03-18 07:25:00,
2013-03-18 03:30:00,31.8,21.7,29.93,ESE,112,5.8,5.8,66,0.00,BKN,,0.00,WeatherDisplay:10.37,2013-03-18 07:30:00,
2013-03-18 03:35:00,32.0,21.9,29.93,ESE,112,5.8,5.8,66,0.00,BKN,,0.00,WeatherDisplay:10.37,2013-03-18 07:35:00,
2013-03-18 03:40:00,32.7,22.2,29.93,East,90,9.2,9.2,65,0.00,BKN,,0.00,WeatherDisplay:10.37,2013-03-18 07:40:00,
2013-03-18 03:45:00,32.7,22.2,29.93,ESE,112,5.8,5.8,65,0.00,BKN,,0.00,WeatherDisplay:10.37,2013-03-18 07:45:00,
2013-03-18 03:50:00,32.7,22.2,29.94,ESE,112,6.9,6.9,65,0.00,BKN,,0.00,WeatherDisplay:10.37,2013-03-18 07:50:00,
2013-03-18 03:55:00,32.9,22.4,29.94,ENE,68,6.9,6.9,65,0.00,BKN,,0.00,WeatherDisplay:10.37,2013-03-18 07:55:00,
2013-03-18 04:00:00,33.1,22.2,29.94,SE,135,6.3,6.3,64,0.00,BKN,,0.00,WeatherDisplay:10.37,2013-03-18 08:00:00,
2013-03-18 04:05:00,33.3,22.4,29.93,SE,135,7.3,7.3,64,0.00,OVC,,0.00,WeatherDisplay:10.37,2013-03-18 08:05:00,
2013-03-18 04:10:00,33.6,22.3,29.93,ESE,112,6.3,6.3,63,0.00,OVC,,0.00,WeatherDisplay:10.37,2013-03-18 08:10:00,
2013-03-18 04:15:00,33.8,22.5,29.93,SE,135,9.2,9.2,63,0.00,OVC,,0.00,WeatherDisplay:10.37,2013-03-18 08:15:00,
2013-03-18 04:20:00,33.8,22.1,29.93,ESE,112,9.2,9.2,62,0.00,OVC,,0.00,WeatherDisplay:10.37,2013-03-18 08:20:00,
2013-03-18 04:25:00,34.0,22.3,29.93,ESE,112,10.4,10.4,62,0.00,OVC,,0.00,WeatherDisplay:10.37,2013-03-18 08:25:00,
2013-03-18 04:30:00,34.0,22.3,29.93,SE,135,8.1,8.1,62,0.00,OVC,,0.00,WeatherDisplay:10.37,2013-03-18 08:30:00,
2013-03-18 04:35:00,34.0,22.7,29.93,ESE,112,9.4,9.4,63,0.00,OVC,,0.00,WeatherDisplay:10.37,2013-03-18 08:35:00,
2013-03-18 04:40:00,34.0,23.5,29.92,ESE,112,13.8,13.8,65,0.00,OVC,,0.00,WeatherDisplay:10.37,2013-03-18 08:40:00,
2013-03-18 04:45:00,33.6,24.5,29.92,SE,135,9.2,9.2,69,0.00,OVC,,0.00,WeatherDisplay:10.37,2013-03-18 08:45:00,
2013-03-18 04:50:00,33.3,25.6,29.92,SSE,158,10.4,10.4,73,0.00,OVC,,0.00,WeatherDisplay:10.37,2013-03-18 08:50:00,
2013-03-18 04:55:00,32.9,26.2,29.92,SE,135,13.5,13.5,76,0.00,OVC,,0.00,WeatherDisplay:10.37,2013-03-18 08:55:00,
2013-03-18 05:00:00,32.7,26.6,29.92,ESE,112,9.2,9.2,78,0.00,OVC,,0.00,WeatherDisplay:10.37,2013-03-18 09:00:00,
2013-03-18 05:05:00,32.4,27.2,29.92,ESE,112,9.2,9.2,81,0.00,OVC,,0.00,WeatherDisplay:10.37,2013-03-18 09:05:00,
2013-03-18 05:10:00,32.0,27.4,29.92,ESE,112,10.4,10.4,83,0.00,OVC,,0.00,WeatherDisplay:10.37,2013-03-18 09:10:00,
2013-03-18 05:15:00,31.8,27.5,29.92,ESE,112,14.0,14.0,84,0.00,OVC,,0.00,WeatherDisplay:10.37,2013-03-18 09:15:00,
2013-03-18 05:20:00,31.6,27.9,29.92,SSE,158,12.7,12.7,86,0.00,OVC,,0.00,WeatherDisplay:10.37,2013-03-18 09:20:00,
2013-03-18 05:25:00,31.5,27.8,29.92,SE,135,10.4,10.4,86,0.00,OVC,,0.00,WeatherDisplay:10.37,2013-03-18 09:25:00,
2013-03-18 05:30:00,31.5,28.4,29.92,ESE,112,12.7,12.7,88,0.00,OVC,,0.00,WeatherDisplay:10.37,2013-03-18 09:30:00,
2013-03-18 05:35:00,31.3,28.4,29.92,SE,135,12.7,12.7,89,0.00,OVC,,0.00,WeatherDisplay:10.37,2013-03-18 09:35:00,
2013-03-18 05:40:00,31.1,28.5,29.91,SE,135,10.4,10.4,90,0.00,OVC,,0.00,WeatherDisplay:10.37,2013-03-18 09:40:00,
2013-03-18 05:45:00,31.1,28.5,29.91,SSE,158,11.5,11.5,90,0.00,OVC,,0.00,WeatherDisplay:10.37,2013-03-18 09:45:00,
2013-03-18 05:50:00,31.1,28.2,29.91,SSE,158,15.0,15.0,89,0.00,OVC,,0.00,WeatherDisplay:10.37,2013-03-18 09:50:00,
2013-03-18 05:55:00,31.1,28.2,29.91,ESE,112,8.3,8.3,89,0.00,OVC,,0.00,WeatherDisplay:10.37,2013-03-18 09:55:00,
2013-03-18 06:00:00,31.1,28.2,29.91,South,180,11.9,11.9,89,0.00,OVC,,0.00,WeatherDisplay:10.37,2013-03-18 10:00:00,
2013-03-18 06:05:00,31.1,28.2,29.90,ESE,112,16.1,16.1,89,0.00,OVC,,0.00,WeatherDisplay:10.37,2013-03-18 10:05:00,
2013-03-18 06:10:00,31.1,28.5,29.90,SE,135,11.5,11.5,90,0.00,OVC,,0.00,WeatherDisplay:10.37,2013-03-18 10:10:00,
2013-03-18 06:15:00,31.1,28.5,29.90,ESE,112,13.0,13.0,90,0.00,OVC,,0.00,WeatherDisplay:10.37,2013-03-18 10:15:00,
2013-03-18 06:20:00,31.1,28.2,29.90,ESE,112,15.0,15.0,89,0.00,OVC,,0.00,WeatherDisplay:10.37,2013-03-18 10:20:00,
2013-03-18 06:25:00,31.1,28.2,29.89,ESE,112,16.1,16.1,89,0.00,OVC,,0.00,WeatherDisplay:10.37,2013-03-18 10:25:00,
2013-03-18 06:30:00,31.1,28.5,29.89,South,180,13.0,13.0,90,0.00,OVC,,0.00,WeatherDisplay:10.37,2013-03-18 10:30:00,
2013-03-18 06:35:00,31.1,28.2,29.89,ESE,112,17.3,17.3,89,0.00,OVC,,0.00,WeatherDisplay:10.37,2013-03-18 10:35:00,
2013-03-18 06:40:00,31.1,28.0,29.88,SSE,158,18.4,18.4,88,0.00,OVC,,0.00,WeatherDisplay:10.37,2013-03-18 10:40:00,
2013-03-18 06:45:00,31.1,28.2,29.88,ESE,112,13.8,13.8,89,0.00,OVC,,0.00,WeatherDisplay:10.37,2013-03-18 10:45:00,
2013-03-18 06:50:00,31.1,28.2,29.88,ESE,112,18.6,18.6,89,0.00,OVC,,0.00,WeatherDisplay:10.37,2013-03-18 10:50:00,
2013-03-18 06:55:00,30.9,28.3,29.88,ESE,112,14.5,14.5,90,0.00,OVC,,0.00,WeatherDisplay:10.37,2013-03-18 10:55:00,
2013-03-18 07:00:00,30.9,28.3,29.86,ESE,112,15.0,15.0,90,0.00,OVC,,0.00,WeatherDisplay:10.37,2013-03-18 11:00:00,
2013-03-18 07:05:00,30.9,28.3,29.86,ESE,112,15.0,15.0,90,0.00,-SN,,0.00,WeatherDisplay:10.37,2013-03-18 11:05:00,
2013-03-18 07:10:00,30.9,28.3,29.86,ESE,112,16.1,16.1,90,0.00,-SN,,0.00,WeatherDisplay:10.37,2013-03-18 11:10:00,
2013-03-18 07:15:00,30.9,28.3,29.86,SSE,158,17.3,17.3,90,0.00,-SN,,0.00,WeatherDisplay:10.37,2013-03-18 11:15:00,
2013-03-18 07:21:00,30.9,28.3,29.86,SSW,202,11.9,11.9,90,0.00,-SN,,0.00,WeatherDisplay:10.37,2013-03-18 11:21:00,
2013-03-18 07:26:00,30.9,28.0,29.86,ESE,112,17.3,17.3,89,0.00,-SN,,0.00,WeatherDisplay:10.37,2013-03-18 11:26:00,
2013-03-18 07:31:00,30.9,28.0,29.86,ESE,112,15.0,15.0,89,0.00,-SN,,0.00,WeatherDisplay:10.37,2013-03-18 11:31:00,
2013-03-18 07:36:00,30.9,28.0,29.86,SE,135,15.0,15.0,89,0.00,-SN,,0.00,WeatherDisplay:10.37,2013-03-18 11:36:00,
2013-03-18 07:42:00,30.9,28.0,29.84,SE,135,10.9,10.9,89,0.00,-SN,,0.00,WeatherDisplay:10.37,2013-03-18 11:42:00,
2013-03-18 07:47:00,30.9,27.8,29.84,SE,135,13.5,13.5,88,0.00,-SN,,0.00,WeatherDisplay:10.37,2013-03-18 11:47:00,
2013-03-18 07:52:00,30.9,27.8,29.84,SE,135,10.4,10.4,88,0.00,-SN,,0.00,WeatherDisplay:10.37,2013-03-18 11:52:00,
2013-03-18 07:57:00,31.1,27.4,29.84,SSE,158,20.7,20.7,86,0.00,-SN,,0.00,WeatherDisplay:10.37,2013-03-18 11:57:00,
2013-03-18 08:02:00,31.1,27.4,29.83,WSW,248,10.4,10.4,86,0.00,OVC,,0.00,WeatherDisplay:10.37,2013-03-18 12:02:00,
2013-03-18 08:07:00,31.1,27.1,29.83,SSE,158,15.5,15.5,85,0.00,OVC,,0.00,WeatherDisplay:10.37,2013-03-18 12:07:00,
2013-03-18 08:12:00,31.1,27.4,29.83,SE,135,10.4,10.4,86,0.00,OVC,,0.00,WeatherDisplay:10.37,2013-03-18 12:12:00,
2013-03-18 08:17:00,31.1,27.1,29.84,SSE,158,13.5,13.5,85,0.00,OVC,,0.00,WeatherDisplay:10.37,2013-03-18 12:17:00,
2013-03-18 08:22:00,31.3,27.0,29.84,SSE,158,15.0,15.0,84,0.00,OVC,,0.00,WeatherDisplay:10.37,2013-03-18 12:22:00,
2013-03-18 08:28:00,31.5,26.9,29.83,ESE,112,15.0,15.0,83,0.00,OVC,,0.00,WeatherDisplay:10.37,2013-03-18 12:28:00,
2013-03-18 08:33:00,31.5,26.9,29.83,ESE,112,15.0,15.0,83,0.00,OVC,,0.00,WeatherDisplay:10.37,2013-03-18 12:33:00,
2013-03-18 08:38:00,31.5,26.9,29.83,SE,135,13.0,13.0,83,0.00,OVC,,0.00,WeatherDisplay:10.37,2013-03-18 12:38:00,
2013-03-18 08:43:00,31.5,26.9,29.83,ESE,112,18.4,18.4,83,0.00,OVC,,0.00,WeatherDisplay:10.37,2013-03-18 12:43:00,
2013-03-18 08:48:00,31.5,26.9,29.83,SSE,158,15.0,15.0,83,0.00,OVC,,0.00,WeatherDisplay:10.37,2013-03-18 12:48:00,
2013-03-18 08:53:00,31.5,26.6,29.81,ESE,112,16.1,16.1,82,0.00,OVC,,0.00,WeatherDisplay:10.37,2013-03-18 12:53:00,
2013-03-18 08:58:00,31.5,26.6,29.81,SE,135,15.0,15.0,82,0.00,OVC,,0.00,WeatherDisplay:10.37,2013-03-18 12:58:00,
2013-03-18 09:03:00,31.5,26.6,29.80,NE,45,12.7,12.7,82,0.00,OVC,,0.00,WeatherDisplay:10.37,2013-03-18 13:03:00,
2013-03-18 09:08:00,31.5,26.3,29.80,SE,135,11.5,11.5,81,0.00,OVC,,0.00,WeatherDisplay:10.37,2013-03-18 13:08:00,
2013-03-18 09:13:00,31.5,26.3,29.80,ESE,112,11.5,11.5,81,0.00,OVC,,0.00,WeatherDisplay:10.37,2013-03-18 13:13:00,
2013-03-18 09:18:00,31.6,26.1,29.80,ESE,112,13.8,13.8,80,0.00,OVC,,0.00,WeatherDisplay:10.37,2013-03-18 13:18:00,
2013-03-18 09:23:00,32.0,26.2,29.80,SSE,158,16.1,16.1,79,0.00,OVC,,0.00,WeatherDisplay:10.37,2013-03-18 13:23:00,
2013-03-18 09:28:00,32.0,26.2,29.79,ESE,112,17.6,17.6,79,0.00,OVC,,0.00,WeatherDisplay:10.37,2013-03-18 13:28:00,
2013-03-18 09:33:00,32.2,26.1,29.79,ESE,112,16.6,16.6,78,0.00,OVC,,0.00,WeatherDisplay:10.37,2013-03-18 13:33:00,
2013-03-18 09:38:00,32.4,26.0,29.78,ESE,112,16.1,16.1,77,0.00,OVC,,0.00,WeatherDisplay:10.37,2013-03-18 13:38:00,
2013-03-18 09:43:00,32.4,26.0,29.78,ESE,112,16.1,16.1,77,0.00,OVC,,0.00,WeatherDisplay:10.37,2013-03-18 13:43:00,
2013-03-18 09:48:00,32.7,26.0,29.78,SE,135,16.1,16.1,76,0.00,OVC,,0.00,WeatherDisplay:10.37,2013-03-18 13:48:00,
2013-03-18 09:53:00,32.9,25.8,29.79,ESE,112,15.0,15.0,75,0.00,OVC,,0.00,WeatherDisplay:10.37,2013-03-18 13:53:00,
2013-03-18 09:58:00,32.9,25.8,29.79,ESE,112,15.0,15.0,75,0.00,OVC,,0.00,WeatherDisplay:10.37,2013-03-18 13:58:00,
2013-03-18 10:03:00,33.1,26.0,29.78,SE,135,12.7,12.7,75,0.00,OVC,,0.00,WeatherDisplay:10.37,2013-03-18 14:03:00,
2013-03-18 10:08:00,33.1,25.7,29.78,ESE,112,13.0,13.0,74,0.00,OVC,,0.00,WeatherDisplay:10.37,2013-03-18 14:08:00,
2013-03-18 10:13:00,33.3,25.9,29.78,SE,135,17.3,17.3,74,0.00,OVC,,0.00,WeatherDisplay:10.37,2013-03-18 14:13:00,
2013-03-18 10:18:00,33.3,25.9,29.79,SE,135,16.1,16.1,74,0.00,OVC,,0.00,WeatherDisplay:10.37,2013-03-18 14:18:00,
2013-03-18 10:23:00,33.4,25.7,29.79,SE,135,15.0,15.0,73,0.00,OVC,,0.00,WeatherDisplay:10.37,2013-03-18 14:23:00,
2013-03-18 10:28:00,33.4,25.7,29.78,SSE,158,15.5,15.5,73,0.00,OVC,,0.00,WeatherDisplay:10.37,2013-03-18 14:28:00,
2013-03-18 10:33:00,33.6,25.9,29.78,ESE,112,12.7,12.7,73,0.00,OVC,,0.00,WeatherDisplay:10.37,2013-03-18 14:33:00,
2013-03-18 10:38:00,33.4,25.7,29.78,SE,135,13.0,13.0,73,0.00,OVC,,0.00,WeatherDisplay:10.37,2013-03-18 14:38:00,
2013-03-18 10:43:00,33.4,26.0,29.78,SE,135,16.1,16.1,74,0.00,OVC,,0.00,WeatherDisplay:10.37,2013-03-18 14:43:00,
2013-03-18 10:48:00,33.4,26.0,29.78,SSE,158,13.8,13.8,74,0.00,OVC,,0.00,WeatherDisplay:10.37,2013-03-18 14:48:00,
2013-03-18 10:53:00,33.4,26.3,29.78,SSW,202,11.5,11.5,75,0.00,OVC,,0.00,WeatherDisplay:10.37,2013-03-18 14:53:00,
2013-03-18 10:58:00,33.4,27.0,29.78,South,180,10.4,10.4,77,0.00,OVC,,0.00,WeatherDisplay:10.37,2013-03-18 14:58:00,
2013-03-18 11:03:00,33.4,27.0,29.77,SE,135,11.5,11.5,77,0.00,OVC,,0.00,WeatherDisplay:10.37,2013-03-18 15:03:00,
2013-03-18 11:08:00,33.4,27.0,29.77,SE,135,9.2,9.2,77,0.00,OVC,,0.00,WeatherDisplay:10.37,2013-03-18 15:08:00,
2013-03-18 11:13:00,33.3,27.5,29.76,SE,135,15.0,15.0,79,0.00,OVC,,0.00,WeatherDisplay:10.37,2013-03-18 15:13:00,
2013-03-18 11:18:00,33.1,27.3,29.76,SE,135,13.8,13.8,79,0.00,OVC,,0.00,WeatherDisplay:10.37,2013-03-18 15:18:00,
2013-03-18 11:23:00,33.1,27.6,29.76,SE,135,15.0,15.0,80,0.00,OVC,,0.00,WeatherDisplay:10.37,2013-03-18 15:23:00,
2013-03-18 11:28:00,33.1,27.9,29.77,East,90,10.4,10.4,81,0.00,OVC,,0.00,WeatherDisplay:10.37,2013-03-18 15:28:00,
2013-03-18 11:33:00,32.9,28.0,29.77,ESE,112,12.7,12.7,82,0.00,OVC,,0.00,WeatherDisplay:10.37,2013-03-18 15:33:00,
2013-03-18 11:38:00,32.7,28.1,29.76,ESE,112,12.7,12.7,83,0.00,OVC,,0.00,WeatherDisplay:10.37,2013-03-18 15:38:00,
2013-03-18 11:43:00,32.7,28.7,29.76,ESE,112,11.4,11.4,85,0.00,OVC,,0.00,WeatherDisplay:10.37,2013-03-18 15:43:00,
2013-03-18 11:48:00,32.5,28.5,29.75,ESE,112,10.4,10.4,85,0.00,OVC,,0.00,WeatherDisplay:10.37,2013-03-18 15:48:00,
2013-03-18 11:53:00,32.5,28.5,29.75,ESE,112,13.8,13.8,85,0.00,OVC,,0.00,WeatherDisplay:10.37,2013-03-18 15:53:00,
2013-03-18 11:58:00,32.5,28.8,29.75,SSE,158,11.5,11.5,86,0.02,RA,,0.02,WeatherDisplay:10.37,2013-03-18 15:58:00,
2013-03-18 12:03:00,32.4,29.0,29.73,SE,135,13.8,13.8,87,0.03,RA,,0.03,WeatherDisplay:10.37,2013-03-18 16:03:00,
2013-03-18 12:08:00,32.4,29.2,29.73,ESE,112,10.4,10.4,88,0.05,RA,,0.05,WeatherDisplay:10.37,2013-03-18 16:08:00,
2013-03-18 12:13:00,32.2,29.0,29.70,ESE,112,16.1,16.1,88,0.06,RA,,0.06,WeatherDisplay:10.37,2013-03-18 16:13:00,
2013-03-18 12:18:00,32.2,29.0,29.70,ESE,112,12.7,12.7,88,0.07,RA,,0.07,WeatherDisplay:10.37,2013-03-18 16:18:00,
2013-03-18 12:23:00,32.2,29.3,29.70,ENE,68,10.4,10.4,89,0.08,RA,,0.08,WeatherDisplay:10.37,2013-03-18 16:23:00,
2013-03-18 12:28:00,32.2,29.3,29.70,ESE,112,10.4,10.4,89,0.09,RA,,0.09,WeatherDisplay:10.37,2013-03-18 16:28:00,
2013-03-18 12:33:00,32.2,29.3,29.70,SE,135,9.4,9.4,89,0.11,RA,,0.11,WeatherDisplay:10.37,2013-03-18 16:33:00,
2013-03-18 12:38:00,32.2,29.3,29.72,ESE,112,10.4,10.4,89,0.11,RA,,0.11,WeatherDisplay:10.37,2013-03-18 16:38:00,
2013-03-18 12:43:00,32.2,29.6,29.72,ESE,112,10.4,10.4,90,0.13,RA,,0.13,WeatherDisplay:10.37,2013-03-18 16:43:00,
2013-03-18 12:48:00,32.2,29.9,29.72,ESE,112,7.3,7.3,91,0.14,RA,,0.14,WeatherDisplay:10.37,2013-03-18 16:48:00,
2013-03-18 12:53:00,32.2,29.9,29.72,ESE,112,5.8,5.8,91,0.15,RA,,0.15,WeatherDisplay:10.37,2013-03-18 16:53:00,
2013-03-18 12:58:00,32.2,29.9,29.72,ESE,112,4.7,4.7,91,0.13,RA,,0.15,WeatherDisplay:10.37,2013-03-18 16:58:00,
2013-03-18 13:03:00,32.4,30.1,29.71,SSE,158,6.9,6.9,91,0.12,OVC,,0.15,WeatherDisplay:10.37,2013-03-18 17:03:00,
2013-03-18 13:08:00,32.5,30.2,29.71,SE,135,9.2,9.2,91,0.11,RA,,0.16,WeatherDisplay:10.37,2013-03-18 17:08:00,
2013-03-18 13:13:00,32.5,30.4,29.71,ESE,112,5.8,5.8,92,0.11,RA,,0.17,WeatherDisplay:10.37,2013-03-18 17:13:00,
2013-03-18 13:18:00,32.5,30.4,29.71,SE,135,5.8,5.8,92,0.11,RA,,0.18,WeatherDisplay:10.37,2013-03-18 17:18:00,
2013-03-18 13:23:00,32.5,30.4,29.71,SE,135,4.7,4.7,92,0.11,RA,,0.19,WeatherDisplay:10.37,2013-03-18 17:23:00,
2013-03-18 13:28:00,32.7,30.6,29.72,South,180,5.8,5.8,92,0.12,RA,,0.21,WeatherDisplay:10.37,2013-03-18 17:28:00,
2013-03-18 13:33:00,32.7,30.9,29.72,SSW,202,2.3,2.3,93,0.10,RA,,0.21,WeatherDisplay:10.37,2013-03-18 17:33:00,
2013-03-18 13:38:00,32.7,30.9,29.72,ESE,112,4.6,4.6,93,0.10,OVC,,0.21,WeatherDisplay:10.37,2013-03-18 17:38:00,
2013-03-18 13:43:00,32.9,31.1,29.72,SE,135,5.8,5.8,93,0.09,RA,,0.22,WeatherDisplay:10.37,2013-03-18 17:43:00,
2013-03-18 13:48:00,32.9,31.1,29.72,ESE,112,4.7,4.7,93,0.08,RA,,0.22,WeatherDisplay:10.37,2013-03-18 17:48:00,
2013-03-18 13:53:00,33.1,31.3,29.71,SE,135,6.9,6.9,93,0.07,OVC,,0.22,WeatherDisplay:10.37,2013-03-18 17:53:00,
2013-03-18 13:58:00,33.3,31.2,29.71,ESE,112,6.9,6.9,92,0.08,RA,,0.23,WeatherDisplay:10.37,2013-03-18 17:58:00,
2013-03-18 14:03:00,33.4,31.3,29.69,ESE,112,6.9,6.9,92,0.08,RA,,0.23,WeatherDisplay:10.37,2013-03-18 18:03:00,
2013-03-18 14:08:00,33.6,31.3,29.69,SE,135,9.4,9.4,91,0.07,OVC,,0.23,WeatherDisplay:10.37,2013-03-18 18:08:00,
2013-03-18 14:13:00,34.0,31.6,29.68,WSW,248,8.1,8.1,91,0.07,RA,,0.24,WeatherDisplay:10.37,2013-03-18 18:13:00,
2013-03-18 14:18:00,34.2,31.6,29.68,ESE,112,6.9,6.9,90,0.06,RA,,0.24,WeatherDisplay:10.37,2013-03-18 18:18:00,
2013-03-18 14:23:00,34.3,31.4,29.68,SSW,202,10.4,10.4,89,0.06,RA,,0.25,WeatherDisplay:10.37,2013-03-18 18:23:00,
2013-03-18 14:28:00,34.5,31.6,29.68,SSE,158,6.9,6.9,89,0.04,RA,,0.25,WeatherDisplay:10.37,2013-03-18 18:28:00,
2013-03-18 14:33:00,34.7,31.8,29.68,ESE,112,6.9,6.9,89,0.04,OVC,,0.25,WeatherDisplay:10.37,2013-03-18 18:33:00,
2013-03-18 14:38:00,34.9,31.7,29.68,SSE,158,5.8,5.8,88,0.05,RA,,0.26,WeatherDisplay:10.37,2013-03-18 18:38:00,
2013-03-18 14:43:00,35.1,31.9,29.68,SSE,158,7.8,7.8,88,0.04,RA,,0.26,WeatherDisplay:10.37,2013-03-18 18:43:00,
2013-03-18 14:48:00,35.2,31.7,29.68,ESE,112,8.1,8.1,87,0.04,OVC,,0.26,WeatherDisplay:10.37,2013-03-18 18:48:00,
2013-03-18 14:53:00,35.2,31.4,29.67,ESE,112,10.4,10.4,86,0.05,RA,,0.27,WeatherDisplay:10.37,2013-03-18 18:53:00,
2013-03-18 14:58:00,35.4,31.6,29.67,SSE,158,8.1,8.1,86,0.04,RA,,0.27,WeatherDisplay:10.37,2013-03-18 18:58:00,
2013-03-18 15:03:00,35.6,31.8,29.66,ESE,112,10.4,10.4,86,0.05,RA,,0.28,WeatherDisplay:10.37,2013-03-18 19:03:00,
2013-03-18 15:08:00,36.0,31.6,29.66,SSE,158,11.5,11.5,84,0.05,RA,,0.28,WeatherDisplay:10.37,2013-03-18 19:08:00,
2013-03-18 15:13:00,36.3,31.6,29.66,ESE,112,10.9,10.9,83,0.04,OVC,,0.28,WeatherDisplay:10.37,2013-03-18 19:13:00,
2013-03-18 15:18:00,36.3,31.3,29.66,SE,135,12.7,12.7,82,0.05,RA,,0.29,WeatherDisplay:10.37,2013-03-18 19:18:00,
2013-03-18 15:23:00,36.5,31.8,29.66,SE,135,7.3,7.3,83,0.04,RA,,0.29,WeatherDisplay:10.37,2013-03-18 19:23:00,
2013-03-18 15:28:00,36.7,31.7,29.64,ESE,112,12.7,12.7,82,0.05,RA,,0.30,WeatherDisplay:10.37,2013-03-18 19:28:00,
2013-03-18 15:33:00,36.9,31.6,29.64,SSE,158,9.2,9.2,81,0.05,RA,,0.30,WeatherDisplay:10.37,2013-03-18 19:33:00,
2013-03-18 15:38:00,36.9,31.6,29.64,NNE,22,11.5,11.5,81,0.05,RA,,0.31,WeatherDisplay:10.37,2013-03-18 19:38:00,
2013-03-18 15:43:00,36.9,31.6,29.64,South,180,9.2,9.2,81,0.05,RA,,0.31,WeatherDisplay:10.37,2013-03-18 19:43:00,
2013-03-18 15:48:00,36.9,31.6,29.64,ESE,112,11.5,11.5,81,0.05,OVC,,0.31,WeatherDisplay:10.37,2013-03-18 19:48:00,
2013-03-18 15:53:00,36.9,31.6,29.64,ESE,112,11.5,11.5,81,0.04,OVC,,0.31,WeatherDisplay:10.37,2013-03-18 19:53:00,
2013-03-18 15:58:00,36.9,31.6,29.64,South,180,6.9,6.9,81,0.05,RA,,0.32,WeatherDisplay:10.37,2013-03-18 19:58:00,
2013-03-18 16:03:00,36.9,31.6,29.63,ESE,112,12.7,12.7,81,0.04,RA,,0.32,WeatherDisplay:10.37,2013-03-18 20:03:00,
2013-03-18 16:08:00,36.9,31.6,29.63,ESE,112,11.4,11.4,81,0.04,OVC,,0.32,WeatherDisplay:10.37,2013-03-18 20:08:00,
2013-03-18 16:13:00,36.7,32.0,29.64,SE,135,6.9,6.9,83,0.04,OVC,,0.32,WeatherDisplay:10.37,2013-03-18 20:13:00,
2013-03-18 16:18:00,36.3,32.2,29.64,ESE,112,9.9,9.9,85,0.04,RA,,0.33,WeatherDisplay:10.37,2013-03-18 20:18:00,
2013-03-18 16:23:00,36.3,32.5,29.64,East,90,8.1,8.1,86,0.04,RA,,0.33,WeatherDisplay:10.37,2013-03-18 20:23:00,
2013-03-18 16:28:00,36.1,32.9,29.63,SSE,158,9.4,9.7,88,0.03,OVC,,0.33,WeatherDisplay:10.37,2013-03-18 20:28:00,
2013-03-18 16:33:00,36.1,32.9,29.63,SSE,158,10.4,10.4,88,0.04,RA,,0.34,WeatherDisplay:10.37,2013-03-18 20:33:00,
2013-03-18 16:38:00,36.1,32.9,29.62,SE,135,13.8,13.8,88,0.03,RA,,0.34,WeatherDisplay:10.37,2013-03-18 20:38:00,
2013-03-18 16:43:00,36.3,33.1,29.62,SE,135,9.2,9.2,88,0.03,OVC,,0.34,WeatherDisplay:10.37,2013-03-18 20:43:00,
2013-03-18 16:48:00,36.3,33.1,29.62,SSE,158,10.4,10.4,88,0.03,OVC,,0.34,WeatherDisplay:10.37,2013-03-18 20:48:00,
2013-03-18 16:53:00,36.7,33.5,29.60,South,180,12.7,12.7,88,0.04,RA,,0.35,WeatherDisplay:10.37,2013-03-18 20:53:00,
2013-03-18 16:58:00,37.2,33.4,29.60,SSE,158,10.4,10.4,86,0.03,RA,,0.35,WeatherDisplay:10.37,2013-03-18 20:58:00,
2013-03-18 17:03:00,37.2,33.4,29.60,SE,135,9.2,9.2,86,0.03,OVC,,0.35,WeatherDisplay:10.37,2013-03-18 21:03:00,
2013-03-18 17:08:00,37.4,33.3,29.60,SE,135,8.1,8.1,85,0.03,OVC,,0.35,WeatherDisplay:10.37,2013-03-18 21:08:00,
2013-03-18 17:13:00,37.4,33.3,29.60,East,90,5.8,6.3,85,0.03,OVC,,0.35,WeatherDisplay:10.37,2013-03-18 21:13:00,
2013-03-18 17:18:00,37.6,33.2,29.60,SSE,158,11.5,11.5,84,0.02,OVC,,0.35,WeatherDisplay:10.37,2013-03-18 21:18:00,
2013-03-18 17:23:00,37.6,33.2,29.60,ESE,112,8.8,8.8,84,0.02,OVC,,0.35,WeatherDisplay:10.37,2013-03-18 21:23:00,
2013-03-18 17:28:00,37.6,33.2,29.59,ESE,112,8.1,8.1,84,0.02,OVC,,0.35,WeatherDisplay:10.37,2013-03-18 21:28:00,
2013-03-18 17:33:00,37.6,33.2,29.59,SW,225,10.4,10.4,84,0.01,OVC,,0.35,WeatherDisplay:10.37,2013-03-18 21:33:00,
2013-03-18 17:38:00,37.6,33.2,29.60,SSE,158,8.3,8.3,84,0.01,OVC,,0.35,WeatherDisplay:10.37,2013-03-18 21:38:00,
2013-03-18 17:43:00,37.8,33.1,29.60,SSE,158,6.9,6.9,83,0.01,OVC,,0.35,WeatherDisplay:10.37,2013-03-18 21:43:00,
2013-03-18 17:48:00,37.8,33.1,29.60,SE,135,7.3,7.3,83,0.01,OVC,,0.35,WeatherDisplay:10.37,2013-03-18 21:48:00,
2013-03-18 17:53:00,37.9,32.9,29.60,SE,135,6.9,6.9,82,0.00,OVC,,0.35,WeatherDisplay:10.37,2013-03-18 21:53:00,
2013-03-18 17:58:00,38.1,32.8,29.60,SE,135,10.4,10.4,81,0.00,OVC,,0.35,WeatherDisplay:10.37,2013-03-18 21:58:00,
2013-03-18 18:03:00,38.3,33.0,29.61,South,180,6.8,6.8,81,0.00,OVC,,0.35,WeatherDisplay:10.37,2013-03-18 22:03:00,
2013-03-18 18:08:00,38.1,32.8,29.61,SE,135,10.4,10.4,81,0.00,OVC,,0.35,WeatherDisplay:10.37,2013-03-18 22:08:00,
2013-03-18 18:13:00,38.1,32.8,29.59,SE,135,10.4,10.4,81,0.00,OVC,,0.35,WeatherDisplay:10.37,2013-03-18 22:13:00,
2013-03-18 18:18:00,37.9,32.3,29.59,ESE,112,12.7,12.7,80,0.00,OVC,,0.35,WeatherDisplay:10.37,2013-03-18 22:18:00,
2013-03-18 18:23:00,37.8,32.2,29.59,ESE,112,10.4,10.4,80,0.00,OVC,,0.35,WeatherDisplay:10.37,2013-03-18 22:23:00,
2013-03-18 18:28:00,37.8,32.2,29.59,ESE,112,10.4,10.4,80,0.00,OVC,,0.35,WeatherDisplay:10.37,2013-03-18 22:28:00,
2013-03-18 18:33:00,37.8,32.2,29.59,SE,135,11.4,11.4,80,0.00,OVC,,0.35,WeatherDisplay:10.37,2013-03-18 22:33:00,
2013-03-18 18:38:00,37.8,32.2,29.57,SE,135,8.3,8.3,80,0.00,OVC,,0.35,WeatherDisplay:10.37,2013-03-18 22:38:00,
2013-03-18 18:43:00,37.8,32.2,29.57,SSE,158,10.4,10.4,80,0.00,OVC,,0.35,WeatherDisplay:10.37,2013-03-18 22:43:00,
2013-03-18 18:48:00,37.8,32.2,29.58,SE,135,10.4,10.4,80,0.00,OVC,,0.35,WeatherDisplay:10.37,2013-03-18 22:48:00,
2013-03-18 18:53:00,37.8,32.2,29.58,SE,135,8.1,8.1,80,0.00,OVC,,0.35,WeatherDisplay:10.37,2013-03-18 22:53:00,
2013-03-18 18:58:00,37.8,32.2,29.58,SE,135,10.4,10.4,80,0.00,OVC,,0.35,WeatherDisplay:10.37,2013-03-18 22:58:00,
2013-03-18 19:03:00,37.8,32.2,29.58,ESE,112,8.3,8.3,80,0.00,OVC,,0.35,WeatherDisplay:10.37,2013-03-18 23:03:00,
2013-03-18 19:08:00,37.8,32.2,29.58,SE,135,6.9,7.3,80,0.00,OVC,,0.35,WeatherDisplay:10.37,2013-03-18 23:08:00,
2013-03-18 19:13:00,37.8,31.9,29.58,SE,135,10.4,10.4,79,0.00,OVC,,0.35,WeatherDisplay:10.37,2013-03-18 23:13:00,
2013-03-18 19:18:00,37.8,31.9,29.58,SE,135,10.4,10.4,79,0.00,OVC,,0.35,WeatherDisplay:10.37,2013-03-18 23:18:00,
2013-03-18 19:23:00,37.8,31.9,29.58,ESE,112,10.4,10.4,79,0.00,OVC,,0.35,WeatherDisplay:10.37,2013-03-18 23:23:00,
2013-03-18 19:28:00,37.8,31.9,29.57,SSE,158,11.5,11.5,79,0.00,OVC,,0.35,WeatherDisplay:10.37,2013-03-18 23:28:00,
2013-03-18 19:33:00,37.6,31.7,29.57,ESE,112,8.8,8.8,79,0.00,OVC,,0.35,WeatherDisplay:10.37,2013-03-18 23:33:00,
2013-03-18 19:38:00,37.6,31.7,29.57,SE,135,10.4,10.4,79,0.00,OVC,,0.35,WeatherDisplay:10.37,2013-03-18 23:38:00,
2013-03-18 19:43:00,37.6,31.7,29.57,SSE,158,8.8,8.9,79,0.00,OVC,,0.35,WeatherDisplay:10.37,2013-03-18 23:43:00,
2013-03-18 19:48:00,37.6,31.7,29.57,SE,135,12.7,12.7,79,0.00,OVC,,0.35,WeatherDisplay:10.37,2013-03-18 23:48:00,
2013-03-18 19:53:00,37.6,31.7,29.56,ESE,112,16.1,16.1,79,0.00,OVC,,0.35,WeatherDisplay:10.37,2013-03-18 23:53:00,
2013-03-18 19:58:00,37.6,31.7,29.56,ESE,112,9.9,9.9,79,0.00,OVC,,0.35,WeatherDisplay:10.37,2013-03-18 23:58:00,
2013-03-18 20:03:00,37.6,31.7,29.56,SE,135,8.8,8.8,79,0.00,OVC,,0.35,WeatherDisplay:10.37,2013-03-19 00:03:00,
2013-03-18 20:08:00,37.6,31.7,29.56,SSE,158,10.4,10.4,79,0.00,OVC,,0.35,WeatherDisplay:10.37,2013-03-19 00:08:00,
2013-03-18 20:13:00,37.6,31.7,29.57,ESE,112,8.8,8.8,79,0.00,OVC,,0.35,WeatherDisplay:10.37,2013-03-19 00:13:00,
2013-03-18 20:18:00,37.6,31.7,29.57,SE,135,7.3,7.3,79,0.00,OVC,,0.35,WeatherDisplay:10.37,2013-03-19 00:18:00,
2013-03-18 20:23:00,37.6,32.0,29.57,SE,135,6.9,6.9,80,0.00,OVC,,0.35,WeatherDisplay:10.37,2013-03-19 00:23:00,
2013-03-18 20:28:00,37.6,32.0,29.56,SE,135,9.2,9.2,80,0.00,OVC,,0.35,WeatherDisplay:10.37,2013-03-19 00:28:00,
2013-03-18 20:33:00,37.6,32.3,29.56,SSE,158,11.4,11.4,81,0.00,OVC,,0.35,WeatherDisplay:10.37,2013-03-19 00:33:00,
2013-03-18 20:38:00,37.6,32.3,29.56,ESE,112,7.8,7.8,81,0.00,OVC,,0.35,WeatherDisplay:10.37,2013-03-19 00:38:00,
2013-03-18 20:43:00,37.6,32.3,29.56,ESE,112,7.8,7.8,81,0.00,OVC,,0.35,WeatherDisplay:10.37,2013-03-19 00:43:00,
2013-03-18 20:48:00,37.6,32.3,29.56,SE,135,8.1,8.1,81,0.00,OVC,,0.35,WeatherDisplay:10.37,2013-03-19 00:48:00,
2013-03-18 20:53:00,37.6,32.3,29.56,ESE,112,8.3,8.3,81,0.00,OVC,,0.35,WeatherDisplay:10.37,2013-03-19 00:53:00,
2013-03-18 20:58:00,37.6,32.3,29.56,ESE,112,8.1,8.1,81,0.00,OVC,,0.35,WeatherDisplay:10.37,2013-03-19 00:58:00,
2013-03-18 21:03:00,37.8,32.5,29.56,SSE,158,8.1,8.2,81,0.00,OVC,,0.35,WeatherDisplay:10.37,2013-03-19 01:03:00,
2013-03-18 21:08:00,37.8,32.5,29.56,SSE,158,8.1,8.1,81,0.00,OVC,,0.35,WeatherDisplay:10.37,2013-03-19 01:08:00,
2013-03-18 21:13:00,37.9,32.6,29.55,ESE,112,8.1,8.1,81,0.00,OVC,,0.35,WeatherDisplay:10.37,2013-03-19 01:13:00,
2013-03-18 21:18:00,37.9,32.6,29.55,South,180,6.9,6.9,81,0.00,OVC,,0.35,WeatherDisplay:10.37,2013-03-19 01:18:00,
2013-03-18 21:23:00,38.1,32.8,29.55,SE,135,10.4,10.4,81,0.00,OVC,,0.35,WeatherDisplay:10.37,2013-03-19 01:23:00,
2013-03-18 21:28:00,38.1,32.8,29.55,ESE,112,5.8,5.8,81,0.00,OVC,,0.35,WeatherDisplay:10.37,2013-03-19 01:28:00,
2013-03-18 21:33:00,38.3,33.0,29.55,SE,135,5.8,6.0,81,0.00,OVC,,0.35,WeatherDisplay:10.37,2013-03-19 01:33:00,
2013-03-18 21:38:00,38.3,33.0,29.55,East,90,6.9,6.9,81,0.00,OVC,,0.35,WeatherDisplay:10.37,2013-03-19 01:38:00,
2013-03-18 21:43:00,38.3,33.0,29.55,SE,135,4.7,4.7,81,0.00,OVC,,0.35,WeatherDisplay:10.37,2013-03-19 01:43:00,
2013-03-18 21:48:00,38.8,33.5,29.55,ESE,112,7.8,7.8,81,0.00,OVC,,0.35,WeatherDisplay:10.37,2013-03-19 01:48:00,
2013-03-18 21:53:00,38.8,33.5,29.54,ESE,112,7.3,7.3,81,0.00,OVC,,0.35,WeatherDisplay:10.37,2013-03-19 01:53:00,
2013-03-18 21:58:00,39.0,33.7,29.54,South,180,5.8,5.8,81,0.00,OVC,,0.35,WeatherDisplay:10.37,2013-03-19 01:58:00,
2013-03-18 22:03:00,39.0,33.7,29.54,ESE,112,5.8,5.8,81,0.00,OVC,,0.35,WeatherDisplay:10.37,2013-03-19 02:03:00,
2013-03-18 22:08:00,39.2,33.9,29.54,ESE,112,6.9,6.9,81,0.00,OVC,,0.35,WeatherDisplay:10.37,2013-03-19 02:08:00,
2013-03-18 22:13:00,39.2,33.5,29.54,ESE,112,5.8,5.8,80,0.00,OVC,,0.35,WeatherDisplay:10.37,2013-03-19 02:13:00,
2013-03-18 22:18:00,39.4,33.7,29.54,ESE,112,6.9,6.9,80,0.00,OVC,,0.35,WeatherDisplay:10.37,2013-03-19 02:18:00,
2013-03-18 22:23:00,39.6,33.9,29.54,ESE,112,5.8,5.8,80,0.00,OVC,,0.35,WeatherDisplay:10.37,2013-03-19 02:23:00,
2013-03-18 22:28:00,39.7,34.0,29.54,SE,135,8.1,8.1,80,0.00,OVC,,0.35,WeatherDisplay:10.37,2013-03-19 02:28:00,
2013-03-18 22:33:00,39.9,34.2,29.54,SSE,158,5.8,5.8,80,0.00,OVC,,0.35,WeatherDisplay:10.37,2013-03-19 02:33:00,
2013-03-18 22:38:00,40.1,34.4,29.53,ESE,112,3.7,3.7,80,0.00,OVC,,0.35,WeatherDisplay:10.37,2013-03-19 02:38:00,
2013-03-18 22:43:00,40.1,34.4,29.53,SSE,158,5.8,5.8,80,0.00,OVC,,0.35,WeatherDisplay:10.37,2013-03-19 02:43:00,
2013-03-18 22:48:00,40.3,34.3,29.53,SSE,158,7.8,7.8,79,0.00,OVC,,0.35,WeatherDisplay:10.37,2013-03-19 02:48:00,
2013-03-18 22:53:00,40.3,34.3,29.53,ESE,112,4.6,4.6,79,0.00,OVC,,0.35,WeatherDisplay:10.37,2013-03-19 02:53:00,
2013-03-18 22:58:00,40.6,34.6,29.53,SSW,202,4.6,4.6,79,0.00,OVC,,0.35,WeatherDisplay:10.37,2013-03-19 02:58:00,
2013-03-18 23:04:00,40.6,34.6,29.52,ESE,112,3.2,3.2,79,0.00,OVC,,0.35,WeatherDisplay:10.37,2013-03-19 03:04:00,
2013-03-18 23:09:00,40.8,34.8,29.52,SSE,158,3.5,3.5,79,0.00,OVC,,0.35,WeatherDisplay:10.37,2013-03-19 03:09:00,
2013-03-18 23:14:00,40.8,34.8,29.52,ESE,112,5.8,5.8,79,0.00,OVC,,0.35,WeatherDisplay:10.37,2013-03-19 03:14:00,
2013-03-18 23:19:00,40.8,34.8,29.52,SW,225,3.5,3.5,79,0.00,OVC,,0.35,WeatherDisplay:10.37,2013-03-19 03:19:00,
2013-03-18 23:24:00,41.0,35.0,29.52,ENE,68,5.8,5.8,79,0.00,OVC,,0.35,WeatherDisplay:10.37,2013-03-19 03:24:00,
2013-03-18 23:29:00,41.2,35.2,29.52,SW,225,4.6,4.6,79,0.00,OVC,,0.35,WeatherDisplay:10.37,2013-03-19 03:29:00,
2013-03-18 23:34:00,41.2,35.2,29.52,SSW,202,4.6,4.6,79,0.00,OVC,,0.35,WeatherDisplay:10.37,2013-03-19 03:34:00,
2013-03-18 23:39:00,41.4,35.4,29.52,ESE,112,4.6,4.6,79,0.00,OVC,,0.35,WeatherDisplay:10.37,2013-03-19 03:39:00,
2013-03-18 23:44:00,41.4,35.7,29.52,SW,225,3.5,3.5,80,0.00,OVC,,0.35,WeatherDisplay:10.37,2013-03-19 03:44:00,
2013-03-18 23:49:00,41.4,36.0,29.52,South,180,2.3,2.3,81,0.00,OVC,,0.35,WeatherDisplay:10.37,2013-03-19 03:49:00,
2013-03-18 23:54:00,41.2,36.1,29.52,SW,225,2.3,2.3,82,0.00,OVC,,0.35,WeatherDisplay:10.37,2013-03-19 03:54:00,
2013-03-18 23:59:00,41.2,36.4,29.52,South,180,3.5,3.5,83,0.00,OVC,,0.35,WeatherDisplay:10.37,2013-03-19 03:59:00,